sensor_id;sensor_type;location;lat;lon;timestamp;pressure;altitude;pressure_sealevel;temperature;humidity
7824;BME280;3957;48.61947800;9.05303100;2023-02-17T00:00:14;96895.94;;;6.68;78.45
7824;BME280;3957;48.61947800;9.05303100;2023-02-17T00:01:24;96898.94;;;6.65;79.37
7824;BME280;3957;48.61947800;9.05303100;2023-02-17T00:02:25;96896.97;;;6.67;79.50
7824;BME280;3957;48.61947800;9.05303100;2023-02-17T00:03:25;96896.28;;;6.65;79.90
7824;BME280;3957;48.61947800;9.05303100;2023-02-17T00:04:31;96894.47;;;6.74;79.39
7824;BME280;3957;48.61947800;9.05303100;2023-02-17T00:05:31;96896.31;;;6.73;79.65
7824;BME280;3957;48.61947800;9.05303100;2023-02-17T00:06:32;96895.16;;;6.76;79.39
7824;BME280;3957;48.61947800;9.05303100;2023-02-17T00:07:32;96902.31;;;6.75;79.44
7824;BME280;3957;48.61947800;9.05303100;2023-02-17T00:08:33;96895.38;;;6.83;79.54
7824;BME280;3957;48.61947800;9.05303100;2023-02-17T00:09:35;96894.50;;;6.82;79.48
7824;BME280;3957;48.61947800;9.05303100;2023-02-17T00:10:36;96900.06;;;6.97;78.82
7824;BME280;3957;48.61947800;9.05303100;2023-02-17T00:11:36;96899.25;;;6.96;79.02
7824;BME280;3957;48.61947800;9.05303100;2023-02-17T00:12:36;96897.44;;;7.05;78.33
7824;BME280;3957;48.61947800;9.05303100;2023-02-17T00:13:37;96898.94;;;7.08;77.73
7824;BME280;3957;48.61947800;9.05303100;2023-02-17T00:14:38;96896.78;;;7.03;78.40
7824;BME280;3957;48.61947800;9.05303100;2023-02-17T00:15:39;96888.28;;;7.08;78.08
7824;BME280;3957;48.61947800;9.05303100;2023-02-17T00:16:40;96893.44;;;7.01;78.39
7824;BME280;3957;48.61947800;9.05303100;2023-02-17T00:17:40;96890.13;;;7.07;78.37
7824;BME280;3957;48.61947800;9.05303100;2023-02-17T00:18:41;96894.13;;;7.11;78.02
7824;BME280;3957;48.61947800;9.05303100;2023-02-17T00:19:41;96889.66;;;7.20;77.49
7824;BME280;3957;48.61947800;9.05303100;2023-02-17T00:20:42;96890.31;;;7.06;78.00
7824;BME280;3957;48.61947800;9.05303100;2023-02-17T00:21:42;96888.47;;;7.06;77.42
7824;BME280;3957;48.61947800;9.05303100;2023-02-17T00:22:42;96889.59;;;7.04;78.41
7824;BME280;3957;48.61947800;9.05303100;2023-02-17T00:23:44;96888.31;;;7.16;77.68
7824;BME280;3957;48.61947800;9.05303100;2023-02-17T00:24:45;96885.97;;;7.05;78.09
7824;BME280;3957;48.61947800;9.05303100;2023-02-17T00:25:45;96890.31;;;7.14;77.75
7824;BME280;3957;48.61947800;9.05303100;2023-02-17T00:26:46;96889.50;;;7.22;77.58
7824;BME280;3957;48.61947800;9.05303100;2023-02-17T00:27:46;96888.66;;;7.21;77.33
7824;BME280;3957;48.61947800;9.05303100;2023-02-17T00:28:47;96881.84;;;7.19;77.84
7824;BME280;3957;48.61947800;9.05303100;2023-02-17T00:29:48;96881.69;;;7.28;77.03
7824;BME280;3957;48.61947800;9.05303100;2023-02-17T00:30:50;96877.84;;;7.14;78.07
7824;BME280;3957;48.61947800;9.05303100;2023-02-17T00:31:53;96879.50;;;7.15;78.41
7824;BME280;3957;48.61947800;9.05303100;2023-02-17T00:32:53;96876.00;;;7.15;78.03
7824;BME280;3957;48.61947800;9.05303100;2023-02-17T00:33:54;96872.19;;;7.18;78.26
7824;BME280;3957;48.61947800;9.05303100;2023-02-17T00:34:55;96874.50;;;7.21;77.95
7824;BME280;3957;48.61947800;9.05303100;2023-02-17T00:35:57;96880.34;;;7.16;78.21
7824;BME280;3957;48.61947800;9.05303100;2023-02-17T00:36:57;96883.31;;;7.13;78.44
7824;BME280;3957;48.61947800;9.05303100;2023-02-17T00:37:59;96885.03;;;7.22;77.62
7824;BME280;3957;48.61947800;9.05303100;2023-02-17T00:39:00;96886.81;;;7.13;77.83
7824;BME280;3957;48.61947800;9.05303100;2023-02-17T00:40:00;96881.03;;;7.18;78.40
7824;BME280;3957;48.61947800;9.05303100;2023-02-17T00:41:01;96885.16;;;7.21;77.76
7824;BME280;3957;48.61947800;9.05303100;2023-02-17T00:42:01;96875.19;;;7.14;77.87
7824;BME280;3957;48.61947800;9.05303100;2023-02-17T00:43:03;96883.81;;;7.17;78.14
7824;BME280;3957;48.61947800;9.05303100;2023-02-17T00:44:03;96880.16;;;7.09;78.35
7824;BME280;3957;48.61947800;9.05303100;2023-02-17T00:45:04;96879.50;;;7.07;78.72
7824;BME280;3957;48.61947800;9.05303100;2023-02-17T00:46:05;96881.16;;;7.17;78.17
7824;BME280;3957;48.61947800;9.05303100;2023-02-17T00:47:06;96880.16;;;7.18;78.39
7824;BME280;3957;48.61947800;9.05303100;2023-02-17T00:48:06;96878.19;;;7.20;77.87
7824;BME280;3957;48.61947800;9.05303100;2023-02-17T00:49:07;96872.00;;;7.19;78.24
7824;BME280;3957;48.61947800;9.05303100;2023-02-17T00:50:08;96883.19;;;7.31;77.50
7824;BME280;3957;48.61947800;9.05303100;2023-02-17T00:51:10;96885.19;;;7.29;77.58
7824;BME280;3957;48.61947800;9.05303100;2023-02-17T00:52:10;96880.03;;;7.36;77.35
7824;BME280;3957;48.61947800;9.05303100;2023-02-17T00:53:10;96882.69;;;7.27;77.39
7824;BME280;3957;48.61947800;9.05303100;2023-02-17T00:54:14;96875.69;;;7.26;77.36
7824;BME280;3957;48.61947800;9.05303100;2023-02-17T00:55:15;96885.03;;;7.22;78.06
7824;BME280;3957;48.61947800;9.05303100;2023-02-17T00:56:16;96883.13;;;7.06;79.12
7824;BME280;3957;48.61947800;9.05303100;2023-02-17T00:57:17;96881.63;;;7.04;79.20
7824;BME280;3957;48.61947800;9.05303100;2023-02-17T00:58:18;96881.28;;;7.07;79.81
7824;BME280;3957;48.61947800;9.05303100;2023-02-17T00:59:18;96883.66;;;7.10;79.87
7824;BME280;3957;48.61947800;9.05303100;2023-02-17T01:00:19;96882.97;;;7.08;79.24
7824;BME280;3957;48.61947800;9.05303100;2023-02-17T01:01:19;96882.69;;;7.27;77.38
7824;BME280;3957;48.61947800;9.05303100;2023-02-17T01:02:20;96882.50;;;7.29;77.75
7824;BME280;3957;48.61947800;9.05303100;2023-02-17T01:03:20;96889.13;;;7.17;78.23
7824;BME280;3957;48.61947800;9.05303100;2023-02-17T01:04:20;96883.66;;;7.10;78.88
7824;BME280;3957;48.61947800;9.05303100;2023-02-17T01:05:21;96885.00;;;7.14;78.28
7824;BME280;3957;48.61947800;9.05303100;2023-02-17T01:06:26;96891.31;;;7.13;78.17
7824;BME280;3957;48.61947800;9.05303100;2023-02-17T01:07:26;96887.16;;;7.19;78.26
7824;BME280;3957;48.61947800;9.05303100;2023-02-17T01:08:27;96881.81;;;7.10;79.07
7824;BME280;3957;48.61947800;9.05303100;2023-02-17T01:09:27;96883.47;;;7.03;79.66
7824;BME280;3957;48.61947800;9.05303100;2023-02-17T01:10:27;96887.47;;;7.07;78.82
7824;BME280;3957;48.61947800;9.05303100;2023-02-17T01:11:31;96878.44;;;7.00;79.08
7824;BME280;3957;48.61947800;9.05303100;2023-02-17T01:12:32;96892.28;;;7.04;79.49
7824;BME280;3957;48.61947800;9.05303100;2023-02-17T01:13:32;96890.31;;;7.06;78.75
7824;BME280;3957;48.61947800;9.05303100;2023-02-17T01:14:33;96889.13;;;7.08;78.86
7824;BME280;3957;48.61947800;9.05303100;2023-02-17T01:15:41;96886.28;;;6.93;79.08
7824;BME280;3957;48.61947800;9.05303100;2023-02-17T01:16:46;96894.28;;;7.02;79.00
7824;BME280;3957;48.61947800;9.05303100;2023-02-17T01:17:47;96894.56;;;6.98;78.97
7824;BME280;3957;48.61947800;9.05303100;2023-02-17T01:18:48;96886.44;;;7.08;78.76
7824;BME280;3957;48.61947800;9.05303100;2023-02-17T01:19:48;96895.63;;;7.06;78.45
7824;BME280;3957;48.61947800;9.05303100;2023-02-17T01:20:50;96890.47;;;7.12;78.58
7824;BME280;3957;48.61947800;9.05303100;2023-02-17T01:21:51;96881.31;;;7.15;77.16
7824;BME280;3957;48.61947800;9.05303100;2023-02-17T01:22:51;96884.66;;;7.09;77.55
7824;BME280;3957;48.61947800;9.05303100;2023-02-17T01:23:53;96888.47;;;7.06;77.83
7824;BME280;3957;48.61947800;9.05303100;2023-02-17T01:24:54;96878.94;;;6.95;78.46
7824;BME280;3957;48.61947800;9.05303100;2023-02-17T01:25:54;96884.06;;;6.89;78.26
7824;BME280;3957;48.61947800;9.05303100;2023-02-17T01:26:55;96871.25;;;6.84;78.71
7824;BME280;3957;48.61947800;9.05303100;2023-02-17T01:27:56;96872.78;;;6.95;78.39
7824;BME280;3957;48.61947800;9.05303100;2023-02-17T01:28:57;96874.53;;;6.78;79.64
7824;BME280;3957;48.61947800;9.05303100;2023-02-17T01:29:58;96878.16;;;6.60;80.60
7824;BME280;3957;48.61947800;9.05303100;2023-02-17T01:31:07;96866.13;;;6.48;81.53
7824;BME280;3957;48.61947800;9.05303100;2023-02-17T01:32:07;96866.16;;;6.56;81.01
7824;BME280;3957;48.61947800;9.05303100;2023-02-17T01:33:08;96862.81;;;6.54;81.10
7824;BME280;3957;48.61947800;9.05303100;2023-02-17T01:34:09;96859.88;;;6.57;81.14
7824;BME280;3957;48.61947800;9.05303100;2023-02-17T01:35:11;96857.47;;;6.46;81.70
7824;BME280;3957;48.61947800;9.05303100;2023-02-17T01:36:17;96857.50;;;6.54;81.58
7824;BME280;3957;48.61947800;9.05303100;2023-02-17T01:37:18;96860.34;;;6.61;81.38
7824;BME280;3957;48.61947800;9.05303100;2023-02-17T01:38:18;96852.53;;;6.59;81.33
7824;BME280;3957;48.61947800;9.05303100;2023-02-17T01:39:19;96863.06;;;6.69;81.02
7824;BME280;3957;48.61947800;9.05303100;2023-02-17T01:40:20;96868.81;;;6.56;81.66
7824;BME280;3957;48.61947800;9.05303100;2023-02-17T01:41:23;96864.41;;;6.73;80.55
7824;BME280;3957;48.61947800;9.05303100;2023-02-17T01:42:26;96857.59;;;6.79;80.08
7824;BME280;3957;48.61947800;9.05303100;2023-02-17T01:43:26;96861.78;;;6.81;80.25
7824;BME280;3957;48.61947800;9.05303100;2023-02-17T01:44:30;96850.16;;;6.83;80.72
7824;BME280;3957;48.61947800;9.05303100;2023-02-17T01:45:35;96848.28;;;6.75;81.10
7824;BME280;3957;48.61947800;9.05303100;2023-02-17T01:46:36;96847.28;;;6.76;81.09
7824;BME280;3957;48.61947800;9.05303100;2023-02-17T01:47:38;96849.63;;;6.79;80.90
7824;BME280;3957;48.61947800;9.05303100;2023-02-17T01:48:44;96846.78;;;6.80;80.41
7824;BME280;3957;48.61947800;9.05303100;2023-02-17T01:49:45;96848.31;;;6.83;80.25
7824;BME280;3957;48.61947800;9.05303100;2023-02-17T01:50:52;96833.31;;;6.82;79.73
7824;BME280;3957;48.61947800;9.05303100;2023-02-17T01:53:05;96843.47;;;6.78;80.63
7824;BME280;3957;48.61947800;9.05303100;2023-02-17T01:54:20;96827.97;;;6.74;80.11
7824;BME280;3957;48.61947800;9.05303100;2023-02-17T01:55:23;96832.53;;;6.90;79.84
7824;BME280;3957;48.61947800;9.05303100;2023-02-17T01:56:25;96825.91;;;6.94;79.55
7824;BME280;3957;48.61947800;9.05303100;2023-02-17T01:57:29;96829.22;;;7.04;78.97
7824;BME280;3957;48.61947800;9.05303100;2023-02-17T01:58:32;96833.06;;;7.02;78.87
7824;BME280;3957;48.61947800;9.05303100;2023-02-17T01:59:32;96824.25;;;7.01;78.18
7824;BME280;3957;48.61947800;9.05303100;2023-02-17T02:00:34;96823.78;;;7.14;77.70
7824;BME280;3957;48.61947800;9.05303100;2023-02-17T02:01:35;96822.59;;;7.17;77.55
7824;BME280;3957;48.61947800;9.05303100;2023-02-17T02:02:37;96821.75;;;7.08;77.53
7824;BME280;3957;48.61947800;9.05303100;2023-02-17T02:03:39;96822.44;;;7.10;77.42
7824;BME280;3957;48.61947800;9.05303100;2023-02-17T02:04:42;96827.28;;;7.23;76.74
7824;BME280;3957;48.61947800;9.05303100;2023-02-17T02:05:44;96818.75;;;7.11;76.92
7824;BME280;3957;48.61947800;9.05303100;2023-02-17T02:06:45;96824.75;;;7.05;77.76
7824;BME280;3957;48.61947800;9.05303100;2023-02-17T02:07:47;96825.94;;;7.10;77.69
7824;BME280;3957;48.61947800;9.05303100;2023-02-17T02:09:57;96829.22;;;7.04;77.97
7824;BME280;3957;48.61947800;9.05303100;2023-02-17T02:10:57;96826.25;;;6.99;78.17
7824;BME280;3957;48.61947800;9.05303100;2023-02-17T02:12:00;96830.56;;;6.92;78.57
7824;BME280;3957;48.61947800;9.05303100;2023-02-17T02:13:06;96826.44;;;7.06;77.20
7824;BME280;3957;48.61947800;9.05303100;2023-02-17T02:14:07;96822.72;;;6.90;78.49
7824;BME280;3957;48.61947800;9.05303100;2023-02-17T02:15:16;96825.41;;;6.98;77.95
7824;BME280;3957;48.61947800;9.05303100;2023-02-17T02:16:27;96830.91;;;7.05;77.64
7824;BME280;3957;48.61947800;9.05303100;2023-02-17T02:17:40;96829.41;;;7.03;77.68
7824;BME280;3957;48.61947800;9.05303100;2023-02-17T02:20:07;96828.06;;;6.98;78.27
7824;BME280;3957;48.61947800;9.05303100;2023-02-17T02:21:37;96828.03;;;6.90;78.97
7824;BME280;3957;48.61947800;9.05303100;2023-02-17T02:23:29;96829.72;;;6.91;79.11
7824;BME280;3957;48.61947800;9.05303100;2023-02-17T02:26:07;96824.09;;;7.11;77.70
7824;BME280;3957;48.61947800;9.05303100;2023-02-17T02:27:18;96821.44;;;7.11;77.69
7824;BME280;3957;48.61947800;9.05303100;2023-02-17T02:30:24;96823.44;;;7.17;77.34
7824;BME280;3957;48.61947800;9.05303100;2023-02-17T02:33:11;96823.44;;;7.09;77.67
7824;BME280;3957;48.61947800;9.05303100;2023-02-17T02:34:21;96823.28;;;7.19;77.42
7824;BME280;3957;48.61947800;9.05303100;2023-02-17T02:36:31;96830.25;;;7.11;78.32
7824;BME280;3957;48.61947800;9.05303100;2023-02-17T02:37:45;96815.63;;;7.07;78.05
7824;BME280;3957;48.61947800;9.05303100;2023-02-17T02:38:52;96817.56;;;6.97;78.22
7824;BME280;3957;48.61947800;9.05303100;2023-02-17T02:39:56;96817.59;;;7.05;78.13
7824;BME280;3957;48.61947800;9.05303100;2023-02-17T02:41:08;96819.75;;;6.93;78.98
7824;BME280;3957;48.61947800;9.05303100;2023-02-17T02:42:13;96813.94;;;6.98;79.82
7824;BME280;3957;48.61947800;9.05303100;2023-02-17T02:43:15;96816.91;;;6.95;79.03
7824;BME280;3957;48.61947800;9.05303100;2023-02-17T02:44:18;96820.56;;;6.94;79.27
7824;BME280;3957;48.61947800;9.05303100;2023-02-17T02:45:20;96817.75;;;7.04;79.27
7824;BME280;3957;48.61947800;9.05303100;2023-02-17T02:46:20;96818.72;;;6.94;79.05
7824;BME280;3957;48.61947800;9.05303100;2023-02-17T02:48:40;96818.56;;;6.96;79.57
7824;BME280;3957;48.61947800;9.05303100;2023-02-17T02:49:41;96814.56;;;6.84;80.32
7824;BME280;3957;48.61947800;9.05303100;2023-02-17T02:51:09;96805.94;;;6.90;80.49
7824;BME280;3957;48.61947800;9.05303100;2023-02-17T02:57:42;96806.59;;;6.84;80.93
7824;BME280;3957;48.61947800;9.05303100;2023-02-17T02:59:30;96814.94;;;7.05;80.27
7824;BME280;3957;48.61947800;9.05303100;2023-02-17T03:00:58;96809.59;;;7.05;80.05
7824;BME280;3957;48.61947800;9.05303100;2023-02-17T03:05:14;96795.25;;;6.73;81.92
7824;BME280;3957;48.61947800;9.05303100;2023-02-17T03:06:21;96798.88;;;6.64;82.88
7824;BME280;3957;48.61947800;9.05303100;2023-02-17T03:07:28;96806.66;;;6.49;84.00
7824;BME280;3957;48.61947800;9.05303100;2023-02-17T03:08:45;96803.72;;;6.69;83.16
7824;BME280;3957;48.61947800;9.05303100;2023-02-17T03:09:52;96797.88;;;6.65;83.99
7824;BME280;3957;48.61947800;9.05303100;2023-02-17T03:10:53;96802.53;;;6.63;84.20
7824;BME280;3957;48.61947800;9.05303100;2023-02-17T03:11:56;96801.03;;;6.60;84.42
7824;BME280;3957;48.61947800;9.05303100;2023-02-17T03:13:02;96791.25;;;6.69;84.08
7824;BME280;3957;48.61947800;9.05303100;2023-02-17T03:14:05;96789.91;;;6.65;84.15
7824;BME280;3957;48.61947800;9.05303100;2023-02-17T03:15:15;96790.63;;;6.84;83.54
7824;BME280;3957;48.61947800;9.05303100;2023-02-17T03:16:18;96785.13;;;6.77;83.84
7824;BME280;3957;48.61947800;9.05303100;2023-02-17T03:17:18;96783.66;;;6.91;83.40
7824;BME280;3957;48.61947800;9.05303100;2023-02-17T03:18:23;96785.44;;;6.82;84.07
7824;BME280;3957;48.61947800;9.05303100;2023-02-17T03:19:24;96784.78;;;6.80;84.09
7824;BME280;3957;48.61947800;9.05303100;2023-02-17T03:20:26;96779.31;;;6.90;83.70
7824;BME280;3957;48.61947800;9.05303100;2023-02-17T03:21:41;96784.69;;;7.06;82.96
7824;BME280;3957;48.61947800;9.05303100;2023-02-17T03:22:44;96775.00;;;6.97;83.48
7824;BME280;3957;48.61947800;9.05303100;2023-02-17T03:23:48;96786.50;;;6.97;83.42
7824;BME280;3957;48.61947800;9.05303100;2023-02-17T03:24:48;96786.50;;;6.97;83.66
7824;BME280;3957;48.61947800;9.05303100;2023-02-17T03:25:48;96787.66;;;7.03;83.75
7824;BME280;3957;48.61947800;9.05303100;2023-02-17T03:26:49;96780.69;;;7.10;83.24
7824;BME280;3957;48.61947800;9.05303100;2023-02-17T03:27:50;96778.53;;;7.06;82.52
7824;BME280;3957;48.61947800;9.05303100;2023-02-17T03:28:51;96780.00;;;7.08;82.53
7824;BME280;3957;48.61947800;9.05303100;2023-02-17T03:29:52;96767.03;;;6.97;83.77
7824;BME280;3957;48.61947800;9.05303100;2023-02-17T03:30:53;96773.50;;;6.94;83.88
7824;BME280;3957;48.61947800;9.05303100;2023-02-17T03:31:53;96778.53;;;7.14;82.84
7824;BME280;3957;48.61947800;9.05303100;2023-02-17T03:32:54;96762.69;;;7.04;83.01
7824;BME280;3957;48.61947800;9.05303100;2023-02-17T03:33:54;96764.72;;;7.10;82.84
7824;BME280;3957;48.61947800;9.05303100;2023-02-17T03:34:55;96757.06;;;6.99;83.90
7824;BME280;3957;48.61947800;9.05303100;2023-02-17T03:35:57;96758.69;;;7.00;84.64
7824;BME280;3957;48.61947800;9.05303100;2023-02-17T03:36:57;96761.88;;;6.95;84.25
7824;BME280;3957;48.61947800;9.05303100;2023-02-17T03:37:58;96762.38;;;6.99;84.67
7824;BME280;3957;48.61947800;9.05303100;2023-02-17T03:38:58;96758.88;;;7.07;84.04
7824;BME280;3957;48.61947800;9.05303100;2023-02-17T03:39:59;96762.06;;;7.10;84.36
7824;BME280;3957;48.61947800;9.05303100;2023-02-17T03:40:59;96769.03;;;7.03;84.42
7824;BME280;3957;48.61947800;9.05303100;2023-02-17T03:41:59;96769.69;;;7.13;83.99
7824;BME280;3957;48.61947800;9.05303100;2023-02-17T03:43:00;96777.88;;;7.28;83.03
7824;BME280;3957;48.61947800;9.05303100;2023-02-17T03:44:00;96784.53;;;7.24;83.00
7824;BME280;3957;48.61947800;9.05303100;2023-02-17T03:45:00;96779.19;;;7.24;83.30
7824;BME280;3957;48.61947800;9.05303100;2023-02-17T03:46:01;96780.69;;;7.19;83.41
7824;BME280;3957;48.61947800;9.05303100;2023-02-17T03:47:02;96772.53;;;7.20;83.47
7824;BME280;3957;48.61947800;9.05303100;2023-02-17T03:48:03;96774.53;;;7.26;83.49
7824;BME280;3957;48.61947800;9.05303100;2023-02-17T03:49:03;96779.53;;;7.21;83.78
7824;BME280;3957;48.61947800;9.05303100;2023-02-17T03:50:04;96772.03;;;7.17;83.73
7824;BME280;3957;48.61947800;9.05303100;2023-02-17T03:51:16;96776.34;;;7.09;84.58
7824;BME280;3957;48.61947800;9.05303100;2023-02-17T03:52:17;96776.34;;;7.09;84.61
7824;BME280;3957;48.61947800;9.05303100;2023-02-17T03:53:18;96778.19;;;7.09;85.30
7824;BME280;3957;48.61947800;9.05303100;2023-02-17T03:54:18;96777.50;;;6.98;85.49
7824;BME280;3957;48.61947800;9.05303100;2023-02-17T03:55:19;96788.00;;;7.08;85.29
7824;BME280;3957;48.61947800;9.05303100;2023-02-17T03:56:19;96785.00;;;7.03;86.09
7824;BME280;3957;48.61947800;9.05303100;2023-02-17T03:57:19;96791.66;;;7.07;85.64
7824;BME280;3957;48.61947800;9.05303100;2023-02-17T03:58:20;96788.50;;;7.04;85.82
7824;BME280;3957;48.61947800;9.05303100;2023-02-17T03:59:20;96783.00;;;6.97;86.28
7824;BME280;3957;48.61947800;9.05303100;2023-02-17T04:00:21;96793.47;;;6.98;86.07
7824;BME280;3957;48.61947800;9.05303100;2023-02-17T04:01:24;96786.34;;;6.99;86.29
7824;BME280;3957;48.61947800;9.05303100;2023-02-17T04:02:24;96790.00;;;7.06;86.08
7824;BME280;3957;48.61947800;9.05303100;2023-02-17T04:03:25;96789.16;;;6.97;86.71
7824;BME280;3957;48.61947800;9.05303100;2023-02-17T04:04:25;96794.81;;;7.03;86.59
7824;BME280;3957;48.61947800;9.05303100;2023-02-17T04:05:26;96790.50;;;7.02;86.32
7824;BME280;3957;48.61947800;9.05303100;2023-02-17T04:06:26;96788.84;;;7.09;86.30
7824;BME280;3957;48.61947800;9.05303100;2023-02-17T04:07:26;96790.66;;;7.17;85.75
7824;BME280;3957;48.61947800;9.05303100;2023-02-17T04:08:27;96788.66;;;7.10;85.83
7824;BME280;3957;48.61947800;9.05303100;2023-02-17T04:09:28;96790.53;;;7.18;85.25
7824;BME280;3957;48.61947800;9.05303100;2023-02-17T04:10:28;96793.31;;;7.17;85.94
7824;BME280;3957;48.61947800;9.05303100;2023-02-17T04:11:28;96794.34;;;7.15;85.85
7824;BME280;3957;48.61947800;9.05303100;2023-02-17T04:12:29;96794.00;;;7.19;85.42
7824;BME280;3957;48.61947800;9.05303100;2023-02-17T04:13:29;96794.16;;;7.17;85.29
7824;BME280;3957;48.61947800;9.05303100;2023-02-17T04:14:30;96793.84;;;7.20;84.92
7824;BME280;3957;48.61947800;9.05303100;2023-02-17T04:15:30;96799.31;;;7.19;84.73
7824;BME280;3957;48.61947800;9.05303100;2023-02-17T04:16:32;96795.00;;;7.18;85.18
7824;BME280;3957;48.61947800;9.05303100;2023-02-17T04:17:37;96788.16;;;7.15;85.32
7824;BME280;3957;48.61947800;9.05303100;2023-02-17T04:18:38;96794.16;;;7.17;85.15
7824;BME280;3957;48.61947800;9.05303100;2023-02-17T04:19:38;96790.81;;;7.15;85.37
7824;BME280;3957;48.61947800;9.05303100;2023-02-17T04:20:39;96790.00;;;7.14;85.55
7824;BME280;3957;48.61947800;9.05303100;2023-02-17T04:21:40;96789.84;;;7.16;85.52
7824;BME280;3957;48.61947800;9.05303100;2023-02-17T04:22:40;96792.84;;;7.13;85.74
7824;BME280;3957;48.61947800;9.05303100;2023-02-17T04:23:41;96792.16;;;7.19;85.44
7824;BME280;3957;48.61947800;9.05303100;2023-02-17T04:24:42;96790.50;;;7.10;85.52
7824;BME280;3957;48.61947800;9.05303100;2023-02-17T04:25:43;96792.50;;;7.16;85.58
7824;BME280;3957;48.61947800;9.05303100;2023-02-17T04:26:44;96791.97;;;7.12;85.55
7824;BME280;3957;48.61947800;9.05303100;2023-02-17T04:27:44;96790.16;;;7.13;85.95
7824;BME280;3957;48.61947800;9.05303100;2023-02-17T04:28:45;96790.34;;;7.20;86.27
7824;BME280;3957;48.61947800;9.05303100;2023-02-17T04:29:45;96791.84;;;7.14;85.81
7824;BME280;3957;48.61947800;9.05303100;2023-02-17T04:30:46;96797.00;;;7.07;86.45
7824;BME280;3957;48.61947800;9.05303100;2023-02-17T04:31:47;96794.81;;;7.11;86.65
7824;BME280;3957;48.61947800;9.05303100;2023-02-17T04:32:47;96796.97;;;6.99;87.13
7824;BME280;3957;48.61947800;9.05303100;2023-02-17T04:33:48;96798.50;;;7.10;87.21
7824;BME280;3957;48.61947800;9.05303100;2023-02-17T04:34:48;96799.31;;;7.10;86.89
7824;BME280;3957;48.61947800;9.05303100;2023-02-17T04:35:48;96798.31;;;7.03;87.26
7824;BME280;3957;48.61947800;9.05303100;2023-02-17T04:36:49;96798.16;;;7.05;87.81
7824;BME280;3957;48.61947800;9.05303100;2023-02-17T04:37:50;96798.81;;;7.07;88.15
7824;BME280;3957;48.61947800;9.05303100;2023-02-17T04:38:50;96801.28;;;7.08;88.16
7824;BME280;3957;48.61947800;9.05303100;2023-02-17T04:39:51;96806.78;;;7.07;87.94
7824;BME280;3957;48.61947800;9.05303100;2023-02-17T04:40:53;96799.81;;;7.06;88.13
7824;BME280;3957;48.61947800;9.05303100;2023-02-17T04:41:54;96805.78;;;7.00;89.08
7824;BME280;3957;48.61947800;9.05303100;2023-02-17T04:42:54;96805.97;;;7.06;88.74
7824;BME280;3957;48.61947800;9.05303100;2023-02-17T04:43:55;96798.50;;;7.10;88.35
7824;BME280;3957;48.61947800;9.05303100;2023-02-17T04:44:55;96805.97;;;7.06;88.87
7824;BME280;3957;48.61947800;9.05303100;2023-02-17T04:45:56;96795.16;;;7.08;88.53
7824;BME280;3957;48.61947800;9.05303100;2023-02-17T04:46:56;96805.13;;;6.97;89.15
7824;BME280;3957;48.61947800;9.05303100;2023-02-17T04:47:57;96801.44;;;6.98;89.40
7824;BME280;3957;48.61947800;9.05303100;2023-02-17T04:48:57;96795.13;;;6.91;90.00
7824;BME280;3957;48.61947800;9.05303100;2023-02-17T04:49:58;96788.66;;;6.94;89.90
7824;BME280;3957;48.61947800;9.05303100;2023-02-17T04:50:58;96800.06;;;6.78;90.71
7824;BME280;3957;48.61947800;9.05303100;2023-02-17T04:51:58;96796.78;;;6.84;90.71
7824;BME280;3957;48.61947800;9.05303100;2023-02-17T04:52:59;96798.06;;;6.72;91.36
7824;BME280;3957;48.61947800;9.05303100;2023-02-17T04:53:59;96794.38;;;6.56;92.02
7824;BME280;3957;48.61947800;9.05303100;2023-02-17T04:55:00;96798.88;;;6.64;93.09
7824;BME280;3957;48.61947800;9.05303100;2023-02-17T04:56:00;96795.03;;;6.58;92.97
7824;BME280;3957;48.61947800;9.05303100;2023-02-17T04:57:00;96796.38;;;6.62;93.63
7824;BME280;3957;48.61947800;9.05303100;2023-02-17T04:58:01;96790.13;;;6.80;92.80
7824;BME280;3957;48.61947800;9.05303100;2023-02-17T04:59:01;96778.97;;;6.85;92.87
7824;BME280;3957;48.61947800;9.05303100;2023-02-17T05:00:03;96787.13;;;6.91;92.51
7824;BME280;3957;48.61947800;9.05303100;2023-02-17T05:01:04;96786.63;;;6.79;92.96
7824;BME280;3957;48.61947800;9.05303100;2023-02-17T05:02:04;96782.28;;;6.70;93.68
7824;BME280;3957;48.61947800;9.05303100;2023-02-17T05:03:05;96782.25;;;6.62;94.70
7824;BME280;3957;48.61947800;9.05303100;2023-02-17T05:04:05;96777.44;;;6.66;94.74
7824;BME280;3957;48.61947800;9.05303100;2023-02-17T05:05:06;96779.28;;;6.73;94.83
7824;BME280;3957;48.61947800;9.05303100;2023-02-17T05:06:06;96777.63;;;6.80;94.54
7824;BME280;3957;48.61947800;9.05303100;2023-02-17T05:07:07;96776.78;;;6.72;94.91
7824;BME280;3957;48.61947800;9.05303100;2023-02-17T05:08:07;96778.09;;;6.68;95.71
7824;BME280;3957;48.61947800;9.05303100;2023-02-17T05:09:07;96772.81;;;6.76;95.36
7824;BME280;3957;48.61947800;9.05303100;2023-02-17T05:10:08;96775.66;;;6.83;95.02
7824;BME280;3957;48.61947800;9.05303100;2023-02-17T05:11:09;96774.81;;;6.90;94.76
7824;BME280;3957;48.61947800;9.05303100;2023-02-17T05:12:09;96770.81;;;6.78;95.22
7824;BME280;3957;48.61947800;9.05303100;2023-02-17T05:13:10;96771.13;;;6.75;95.94
7824;BME280;3957;48.61947800;9.05303100;2023-02-17T05:14:10;96768.81;;;6.72;96.23
7824;BME280;3957;48.61947800;9.05303100;2023-02-17T05:15:11;96772.44;;;6.62;96.65
7824;BME280;3957;48.61947800;9.05303100;2023-02-17T05:16:12;96769.25;;;6.51;97.75
7824;BME280;3957;48.61947800;9.05303100;2023-02-17T05:17:12;96758.13;;;6.55;97.51
7824;BME280;3957;48.61947800;9.05303100;2023-02-17T05:18:13;96765.34;;;6.71;97.23
7824;BME280;3957;48.61947800;9.05303100;2023-02-17T05:19:13;96766.16;;;6.80;97.06
7824;BME280;3957;48.61947800;9.05303100;2023-02-17T05:20:13;96760.34;;;6.76;97.40
7824;BME280;3957;48.61947800;9.05303100;2023-02-17T05:21:14;96763.69;;;6.78;97.25
7824;BME280;3957;48.61947800;9.05303100;2023-02-17T05:22:14;96759.53;;;6.92;97.52